WMKP/PEN METAR and TAF weather

Enter ICAO airport designator
Station Type Date Time Source
WMKP METAR 2019/06/27 08:00 UTC NOAA

WMKP 270800Z 22008KT 190V250 7000 FEW020 SCT140 BKN280 31/24 Q1007 NOSIG


Station Type Date Time Source
WMKP Decoded METAR 2019/06/27 08:00 UTC NOAA

Penang / Bayan Lepas, Malaysia (WMKP) 05-18N 100-16E 4M
Jun 27, 2019 - 04:00 AM EDT / 2019.06.27 0800 UTC
Wind: from the SW (220 degrees) at 9 MPH (8 KT) (direction variable):0
Visibility: 4 mile(s):0
Sky conditions: mostly cloudy
Temperature: 87 F (31 C)
Heat index: 95.7 F (35.4 C):1
Dew Point: 75 F (24 C)
Relative Humidity: 66%
Pressure (altimeter): 29.74 in. Hg (1007 hPa)
ob: WMKP 270800Z 22008KT 190V250 7000 FEW020 SCT140 BKN280 31/24 Q1007 NOSIG
cycle: 8

Station Type Date Time Source
WMKP TAF 2019/06/27 06:12 UTC NOAA

TAF WMKP 270500Z 2706/2806 22010KT 9000 FEW020
BECMG 2712/2714 VRB03KT FEW025
BECMG 2802/2804 23009KT FEW020

Example: see airport list